Time;durP1;ratioP1;P1;durP2;ratioP2;P2;SDS_P1;SDS_P2;PMS_P1;PMS_P2;Temp;Humidity;BMP_temperature;BMP_pressure;BME280_temperature;BME280_humidity;BME280_pressure;Samples;Min_cycle;Max_cycle;Signal;HPM_P1;HPM_P2
2022/01/20 00:02:08;;;;;;;20.52;7.47;;;;;;;5.48;76.75;100935.69;5099254;28;20155;-81
2022/01/20 00:04:43;;;;;;;24.83;6.53;;;;;;;5.43;76.57;100932.03;5099534;28;20481;-81
2022/01/20 00:26:52;;;;;;;22.30;7.28;;;;;;;5.13;77.85;100933.53;5078538;28;20058;-82
2022/01/20 00:29:26;;;;;;;;;;;;;;;5.06;77.83;100928.25;5098722;28;20063;-81
2022/01/20 00:32:06;;;;;;;27.63;7.53;;;;;;;5.08;77.96;100933.50;5097469;28;19943;-82
2022/01/20 00:35:10;;;;;;;24.23;7.38;;;;;;;5.03;78.28;100934.28;5098162;28;20060;-80
2022/01/20 00:37:36;;;;;;;22.50;7.18;;;;;;;5.00;78.49;100939.53;5097688;28;20059;-81
2022/01/20 00:40:04;;;;;;;25.85;7.68;;;;;;;4.93;78.86;100934.22;5097424;28;20052;-82
2022/01/20 00:42:32;;;;;;;26.27;6.72;;;;;;;4.98;78.81;100939.81;5096853;28;20051;-81
2022/01/20 00:45:01;;;;;;;25.95;7.10;;;;;;;5.00;78.69;100929.31;5097678;28;20052;-81
2022/01/20 00:47:29;;;;;;;26.13;8.05;;;;;;;4.94;78.44;100941.44;5097943;28;20052;-82
2022/01/20 00:49:56;;;;;;;26.05;7.00;;;;;;;4.97;78.56;100942.81;5097870;28;20063;-80
2022/01/20 00:52:23;;;;;;;25.02;6.68;;;;;;;4.92;78.58;100946.38;5097119;28;20055;-82
2022/01/20 00:54:51;;;;;;;27.05;6.60;;;;;;;4.95;77.94;100948.59;5096607;28;20496;-81
2022/01/20 00:57:18;;;;;;;23.55;6.70;;;;;;;4.97;78.40;100954.69;5097174;28;20048;-80
2022/01/20 00:59:46;;;;;;;21.60;7.78;;;;;;;5.00;78.36;100950.59;5098325;28;20052;-80
2022/01/20 01:02:15;;;;;;;23.02;6.80;;;;;;;4.99;78.19;100944.22;5098309;28;20052;-80
2022/01/20 01:04:43;;;;;;;22.08;5.90;;;;;;;4.91;78.41;100943.88;5097234;28;20055;-81
2022/01/20 01:07:38;;;;;;;29.67;6.28;;;;;;;4.99;78.36;100949.72;5096170;28;20484;-81
2022/01/20 01:10:08;;;;;;;20.95;5.78;;;;;;;5.03;78.15;100941.75;5097201;28;20394;-82
2022/01/20 01:12:42;;;;;;;30.92;6.63;;;;;;;5.12;78.04;100931.88;5096835;28;20405;-81
2022/01/20 01:15:16;;;;;;;26.63;7.10;;;;;;;5.17;77.81;100929.16;5103421;28;20059;-80
2022/01/20 01:20:34;;;;;;;30.88;6.95;;;;;;;5.35;78.22;100929.78;5098304;28;20646;-81
2022/01/20 01:23:01;;;;;;;25.95;7.00;;;;;;;5.39;77.94;100925.41;5096496;28;20048;-82
2022/01/20 01:25:29;;;;;;;22.80;7.38;;;;;;;5.42;77.80;100930.41;5096857;28;20052;-81
2022/01/20 01:27:59;;;;;;;24.63;7.13;;;;;;;5.35;77.10;100927.03;5098909;28;20048;-81
2022/01/20 01:33:12;;;;;;;27.23;7.50;;;;;;;5.55;77.04;100921.59;5096655;28;20052;-81
2022/01/20 01:35:41;;;;;;;23.58;6.03;;;;;;;5.51;76.72;100914.97;5097796;28;20075;-82
2022/01/20 01:38:36;;;;;;;26.48;7.40;;;;;;;5.53;77.08;100926.56;5098389;28;20040;-82
2022/01/20 01:41:08;;;;;;;24.38;6.43;;;;;;;5.52;76.24;100924.06;5098489;28;20054;-82
2022/01/20 01:43:37;;;;;;;22.33;6.13;;;;;;;5.60;76.74;100929.06;5097905;28;20056;-82
2022/01/20 01:46:04;;;;;;;21.65;5.97;;;;;;;5.57;76.14;100921.34;5098297;28;20052;-80
2022/01/20 01:48:34;;;;;;;22.67;5.97;;;;;;;5.70;76.11;100921.66;5097876;28;20059;-81
2022/01/20 01:51:01;;;;;;;25.33;6.63;;;;;;;5.81;75.50;100928.03;5097347;28;20048;-81
2022/01/20 01:53:29;;;;;;;26.25;5.85;;;;;;;5.87;75.15;100920.63;5097161;28;20055;-82
2022/01/20 01:55:57;;;;;;;21.42;5.95;;;;;;;5.91;75.21;100916.19;5097594;28;20063;-82
2022/01/20 01:58:24;;;;;;;25.73;6.47;;;;;;;5.88;75.16;100925.06;5098211;28;20055;-82
2022/01/20 02:00:52;;;;;;;18.73;6.28;;;;;;;5.94;75.46;100931.41;5097933;28;20059;-82
2022/01/20 02:03:20;;;;;;;34.63;7.40;;;;;;;6.04;75.01;100937.81;5098351;28;20048;-83
2022/01/20 02:06:04;;;;;;;26.30;6.82;;;;;;;5.91;75.00;100938.31;5098055;28;20484;-82
2022/01/20 02:08:37;;;;;;;19.50;6.57;;;;;;;5.99;75.37;100940.59;5096959;28;20504;-83
2022/01/20 02:19:20;;;;;;;20.27;5.65;;;;;;;6.10;74.06;100931.19;5101513;28;20059;-82
2022/01/20 02:21:51;;;;;;;21.92;5.68;;;;;;;6.18;73.88;100927.06;5097031;28;20052;-83
2022/01/20 02:24:20;;;;;;;21.17;5.63;;;;;;;6.14;73.85;100931.50;5099837;28;20123;-82
2022/01/20 02:26:48;;;;;;;21.60;5.88;;;;;;;6.15;73.88;100932.31;5097146;28;20044;-82
2022/01/20 02:29:16;;;;;;;21.00;5.50;;;;;;;6.17;73.67;100930.94;5097577;28;20056;-81
2022/01/20 02:31:43;;;;;;;18.35;4.72;;;;;;;6.21;72.77;100943.13;5096760;28;20059;-82
2022/01/20 02:34:12;;;;;;;20.65;6.03;;;;;;;6.24;72.76;100920.47;5098968;28;20048;-81
2022/01/20 02:36:43;;;;;;;21.50;6.57;;;;;;;6.17;72.83;100919.06;5100187;28;20056;-82
2022/01/20 02:39:25;;;;;;;20.80;4.97;;;;;;;6.16;72.43;100918.22;5093282;28;20048;-82
2022/01/20 02:44:53;;;;;;;25.13;7.28;;;;;;;6.19;72.66;100922.38;5014922;28;20055;-82
2022/01/20 02:47:23;;;;;;;16.52;5.10;;;;;;;6.18;71.83;100920.72;5062670;28;20056;-81
2022/01/20 02:49:51;;;;;;;23.73;6.22;;;;;;;6.10;72.79;100922.09;5079906;28;20059;-82
2022/01/20 02:52:21;;;;;;;16.17;4.85;;;;;;;6.12;71.93;100919.06;5087432;28;20067;-82
2022/01/20 02:54:51;;;;;;;15.32;5.18;;;;;;;6.01;72.46;100907.97;5099523;28;20052;-81
2022/01/20 02:57:20;;;;;;;17.25;5.65;;;;;;;6.09;72.76;100910.19;5100477;28;20048;-82
2022/01/20 02:59:47;;;;;;;19.20;4.88;;;;;;;6.10;72.79;100920.13;5100493;28;20067;-81
2022/01/20 03:02:15;;;;;;;21.27;5.90;;;;;;;5.93;72.82;100913.16;5100445;28;20055;-81
2022/01/20 03:04:42;;;;;;;15.45;5.25;;;;;;;5.94;72.42;100921.16;5100105;28;20056;-81
2022/01/20 03:07:10;;;;;;;18.92;4.30;;;;;;;6.12;71.74;100908.00;5100449;28;20056;-82
2022/01/20 03:09:37;;;;;;;18.13;5.28;;;;;;;6.08;72.00;100922.34;5099630;28;20419;-81
2022/01/20 03:12:07;;;;;;;15.68;5.20;;;;;;;6.12;71.70;100919.88;5098657;28;20048;-82
2022/01/20 03:14:34;;;;;;;15.48;4.18;;;;;;;6.15;72.00;100912.97;5099346;28;20048;-81
2022/01/20 03:17:01;;;;;;;18.23;4.97;;;;;;;6.15;71.99;100921.25;5099459;28;20059;-81
2022/01/20 03:19:30;;;;;;;20.42;5.00;;;;;;;6.21;71.56;100900.81;5099606;28;20063;-81
2022/01/20 03:21:58;;;;;;;15.23;3.63;;;;;;;6.27;71.00;100916.31;5098941;28;20422;-81
2022/01/20 03:24:25;;;;;;;18.27;4.70;;;;;;;6.18;71.31;100924.31;5099060;28;20512;-79
2022/01/20 03:26:53;;;;;;;20.00;5.03;;;;;;;6.18;71.52;100920.72;5099606;28;20047;-81
2022/01/20 03:29:21;;;;;;;20.83;4.65;;;;;;;6.21;71.63;100918.22;5100095;28;20063;-82
2022/01/20 03:31:49;;;;;;;19.05;4.47;;;;;;;6.22;71.21;100908.84;5099567;28;20051;-81
2022/01/20 03:34:16;;;;;;;15.23;4.32;;;;;;;6.23;71.57;100902.19;5100252;28;20053;-82
2022/01/20 03:36:44;;;;;;;19.60;5.50;;;;;;;6.22;71.98;100896.94;5099266;28;20059;-81
2022/01/20 03:39:11;;;;;;;16.75;5.13;;;;;;;6.25;71.22;100899.16;5098614;28;20044;-82
2022/01/20 03:41:38;;;;;;;13.93;4.60;;;;;;;6.14;71.15;100903.00;5099934;28;20048;-81
2022/01/20 03:44:06;;;;;;;17.80;5.10;;;;;;;5.98;72.12;100894.66;5099223;28;20052;-81
2022/01/20 03:46:35;;;;;;;17.90;6.15;;;;;;;5.84;72.27;100883.28;5079749;28;20044;-82
2022/01/20 03:49:09;;;;;;;14.43;4.80;;;;;;;5.81;72.29;100892.13;5078487;28;20071;-82
2022/01/20 03:51:36;;;;;;;16.45;5.72;;;;;;;5.78;72.62;100880.78;5078672;28;20056;-82
2022/01/20 03:54:04;;;;;;;19.63;5.22;;;;;;;5.65;72.53;100874.66;5093466;28;20040;-81
2022/01/20 03:56:33;;;;;;;15.15;5.07;;;;;;;5.64;72.62;100884.03;5098514;28;20055;-82
2022/01/20 03:59:00;;;;;;;16.92;5.38;;;;;;;5.57;72.80;100885.44;5099627;28;20052;-83
2022/01/20 04:01:27;;;;;;;17.90;4.32;;;;;;;5.53;73.50;100882.38;5099715;28;20055;-82
2022/01/20 04:03:56;;;;;;;17.63;3.90;;;;;;;5.57;73.20;100880.72;5098878;28;20051;-82
2022/01/20 04:06:24;;;;;;;18.30;5.03;;;;;;;5.59;72.58;100881.28;5099540;28;20051;-82
2022/01/20 04:08:52;;;;;;;14.48;4.47;;;;;;;5.60;72.84;100882.94;5098775;28;20381;-82
2022/01/20 04:11:22;;;;;;;15.23;3.63;;;;;;;5.54;72.73;100877.66;5097998;28;20048;-81
2022/01/20 04:13:50;;;;;;;16.40;3.72;;;;;;;5.55;72.44;100891.22;5098012;28;20401;-81
2022/01/20 04:16:21;;;;;;;14.77;4.40;;;;;;;5.43;72.97;100893.38;5098655;28;20438;-82
2022/01/20 04:18:54;;;;;;;16.92;5.22;;;;;;;5.53;72.32;100885.13;5098457;28;20052;-81
2022/01/20 04:21:25;;;;;;;18.30;4.18;;;;;;;5.36;72.63;100903.84;5080515;28;20063;-81
2022/01/20 04:23:53;;;;;;;16.35;4.20;;;;;;;5.49;72.76;100895.88;5097315;28;20051;-82
2022/01/20 04:26:22;;;;;;;11.65;3.40;;;;;;;5.54;72.51;100899.75;5098119;28;20052;-82
2022/01/20 04:28:53;;;;;;;17.33;3.45;;;;;;;5.61;72.10;100890.13;5097992;28;20052;-81
2022/01/20 04:31:21;;;;;;;14.75;4.25;;;;;;;5.72;72.09;100892.94;5097775;28;20055;-82
2022/01/20 04:33:48;;;;;;;14.23;4.07;;;;;;;5.62;72.19;100894.53;5098265;28;20047;-82
2022/01/20 04:36:16;;;;;;;13.48;3.33;;;;;;;5.68;72.46;100901.75;5098277;28;20067;-82
2022/01/20 04:38:44;;;;;;;18.05;4.47;;;;;;;5.79;72.54;100901.78;5097347;28;20409;-81
2022/01/20 04:41:12;;;;;;;19.80;4.03;;;;;;;5.80;72.04;100906.22;5097319;28;20056;-81
2022/01/20 04:43:40;;;;;;;16.27;4.55;;;;;;;5.78;72.41;100900.97;5097118;28;20075;-83
2022/01/20 04:46:14;;;;;;;12.60;5.32;;;;;;;5.79;72.31;100905.38;5098605;28;20055;-82
2022/01/20 04:48:59;;;;;;;14.27;4.50;;;;;;;5.86;72.13;100913.44;5098404;28;20056;-82
2022/01/20 04:57:16;;;;;;;12.02;4.78;;;;;;;5.85;71.38;100911.75;5096692;28;20052;-82
2022/01/20 04:59:44;;;;;;;13.13;4.55;;;;;;;5.74;71.52;100912.84;5098382;28;20051;-82
2022/01/20 05:02:12;;;;;;;14.50;4.55;;;;;;;5.80;71.52;100909.00;5097808;28;20048;-82
2022/01/20 05:04:41;;;;;;;16.25;5.18;;;;;;;5.79;71.54;100912.84;5097934;28;20055;-82
2022/01/20 05:07:11;;;;;;;20.10;6.82;;;;;;;5.83;72.09;100916.72;5098470;28;20128;-80
2022/01/20 05:09:40;;;;;;;11.68;5.13;;;;;;;5.89;71.83;100927.53;5097185;28;20075;-81
2022/01/20 05:12:11;;;;;;;16.55;5.70;;;;;;;5.98;71.54;100925.09;5097902;28;20052;-82
2022/01/20 05:14:39;;;;;;;16.90;5.63;;;;;;;6.00;71.52;100924.81;5096829;28;20048;-81
2022/01/20 05:17:06;;;;;;;13.75;5.20;;;;;;;6.06;71.25;100912.66;5098364;28;20071;-82
2022/01/20 05:19:37;;;;;;;12.32;5.82;;;;;;;6.01;71.25;100924.56;5098525;28;20489;-81
2022/01/20 05:22:05;;;;;;;19.15;5.85;;;;;;;6.04;71.38;100925.94;5098103;28;20060;-81
2022/01/20 05:24:32;;;;;;;17.98;6.03;;;;;;;5.96;71.67;100932.00;5097855;28;20063;-82
2022/01/20 05:27:01;;;;;;;13.75;5.25;;;;;;;5.98;72.16;100938.91;5097758;28;20055;-83
2022/01/20 05:29:28;;;;;;;8.03;4.07;;;;;;;6.00;72.19;100925.66;5098152;28;20052;-82
2022/01/20 05:31:55;;;;;;;16.80;4.85;;;;;;;5.97;72.43;100937.25;5098183;28;20489;-82
2022/01/20 05:34:23;;;;;;;14.40;5.43;;;;;;;5.92;72.46;100934.44;5097706;28;20068;-82
2022/01/20 05:36:50;;;;;;;13.43;5.40;;;;;;;5.96;73.07;100938.34;5097376;28;20055;-81
2022/01/20 05:39:18;;;;;;;11.15;4.97;;;;;;;5.75;73.30;100939.38;5097742;28;20382;-82
2022/01/20 05:41:46;;;;;;;9.98;5.38;;;;;;;5.89;72.54;100943.28;5098057;28;20044;-81
2022/01/20 05:44:15;;;;;;;10.32;5.22;;;;;;;5.77;73.19;100957.34;5097690;28;20059;-83
2022/01/20 05:46:44;;;;;;;16.13;5.25;;;;;;;5.91;73.94;100960.44;5096357;28;20040;-81
2022/01/20 05:49:11;;;;;;;14.15;4.80;;;;;;;5.99;73.56;100970.19;5094322;28;20048;-82
2022/01/20 05:51:39;;;;;;;8.63;3.97;;;;;;;6.03;72.83;100966.59;5096988;28;20412;-82
2022/01/20 05:54:08;;;;;;;9.18;3.42;;;;;;;5.90;72.48;100965.16;5094056;28;20052;-81
2022/01/20 05:56:35;;;;;;;8.07;3.40;;;;;;;5.98;72.32;100974.03;5087392;28;20044;-80
2022/01/20 05:59:03;;;;;;;8.23;3.25;;;;;;;5.97;72.26;100998.09;5076126;28;20053;-81
2022/01/20 06:01:36;;;;;;;9.15;2.80;;;;;;;5.94;72.06;101012.41;5070642;28;20055;-81
2022/01/20 06:04:05;;;;;;;6.63;1.88;;;;;;;5.84;71.66;101009.63;5092246;28;20041;-80
2022/01/20 06:06:35;;;;;;;4.72;1.80;;;;;;;5.75;71.86;101005.69;5095287;28;20055;-81
2022/01/20 06:09:03;;;;;;;3.30;1.50;;;;;;;5.74;71.52;100998.53;5100456;28;20054;-82
2022/01/20 06:11:31;;;;;;;4.88;1.80;;;;;;;5.60;72.03;101009.22;5091727;28;20048;-81
2022/01/20 06:13:58;;;;;;;9.65;2.45;;;;;;;5.48;72.31;101006.66;5088675;28;20044;-81
2022/01/20 06:16:25;;;;;;;5.78;1.85;;;;;;;5.45;72.19;101001.69;5100749;28;20052;-82
2022/01/20 06:18:54;;;;;;;6.15;2.58;;;;;;;5.32;73.19;101005.75;5100465;28;20055;-82
2022/01/20 06:21:22;;;;;;;6.63;2.67;;;;;;;5.37;72.69;101011.28;5100693;28;20051;-80
2022/01/20 06:23:50;;;;;;;7.70;2.28;;;;;;;5.36;72.63;101017.94;5098971;28;20055;-82
2022/01/20 06:26:18;;;;;;;4.75;2.35;;;;;;;5.29;72.90;101029.22;5100387;28;20055;-82
2022/01/20 06:28:47;;;;;;;10.70;2.50;;;;;;;5.32;72.76;101032.53;5096421;28;20052;-82
2022/01/20 06:31:16;;;;;;;4.13;1.95;;;;;;;5.36;72.68;101045.56;5098614;28;20060;-82
2022/01/20 06:33:43;;;;;;;8.23;2.28;;;;;;;5.39;72.52;101033.13;5100164;28;20059;-82
2022/01/20 06:36:12;;;;;;;5.85;2.40;;;;;;;5.39;72.41;101046.94;5100137;28;20052;-83
2022/01/20 06:38:39;;;;;;;7.95;2.50;;;;;;;5.35;72.39;101056.84;5100519;28;20040;-82
2022/01/20 06:41:07;;;;;;;8.98;2.20;;;;;;;5.27;72.42;101056.25;5100622;28;20048;-80
2022/01/20 06:43:34;;;;;;;7.72;2.05;;;;;;;5.29;72.05;101062.34;5099082;28;20440;-81
2022/01/20 06:46:02;;;;;;;9.70;2.17;;;;;;;5.24;71.46;101067.00;5099683;28;20048;-83
2022/01/20 06:48:29;;;;;;;10.88;2.67;;;;;;;5.23;71.83;101074.47;5100375;28;20044;-83
2022/01/20 06:50:56;;;;;;;13.88;2.85;;;;;;;5.20;71.91;101090.72;5099774;28;20059;-83
2022/01/20 06:53:25;;;;;;;9.23;2.33;;;;;;;5.18;71.16;101102.00;5099968;28;20059;-81
2022/01/20 06:55:53;;;;;;;9.90;2.95;;;;;;;5.14;71.63;101095.34;5099790;28;20048;-82
2022/01/20 06:58:22;;;;;;;12.60;3.00;;;;;;;5.07;71.39;101083.69;5099972;28;20052;-83
2022/01/20 07:00:50;;;;;;;9.77;2.50;;;;;;;4.94;71.79;101104.28;5098947;28;20497;-82
2022/01/20 07:03:17;;;;;;;13.80;3.33;;;;;;;4.92;71.87;101106.47;5102727;28;20048;-82
2022/01/20 07:05:44;;;;;;;10.40;2.85;;;;;;;4.84;71.88;101105.00;5099925;28;20052;-82
2022/01/20 07:08:12;;;;;;;11.90;2.60;;;;;;;4.80;71.88;101112.16;5100013;28;20122;-82
2022/01/20 07:10:40;;;;;;;9.15;2.75;;;;;;;4.78;71.83;101117.09;5098912;28;20044;-82
2022/01/20 07:13:08;;;;;;;16.02;3.33;;;;;;;4.78;72.01;101133.66;5099594;28;20055;-82
2022/01/20 07:15:37;;;;;;;13.40;3.25;;;;;;;4.82;71.64;101137.56;5097747;28;20056;-84
2022/01/20 07:18:05;;;;;;;10.32;2.20;;;;;;;4.70;72.06;101150.66;5096549;28;20064;-85
2022/01/20 07:20:32;;;;;;;17.20;2.92;;;;;;;4.76;72.49;101149.63;5089823;28;20048;-82
2022/01/20 07:23:02;;;;;;;10.48;2.53;;;;;;;4.72;72.67;101148.47;5095736;28;20056;-83
2022/01/20 07:25:29;;;;;;;9.40;2.63;;;;;;;4.91;72.67;101159.19;5098783;28;20056;-83
2022/01/20 07:27:58;;;;;;;15.02;2.33;;;;;;;5.02;72.27;101167.31;5095259;28;20051;-84
2022/01/20 07:30:25;;;;;;;9.48;2.33;;;;;;;5.04;71.97;101172.56;5100627;28;20066;-84
2022/01/20 07:33:02;;;;;;;11.60;2.42;;;;;;;5.13;71.65;101176.53;5087911;28;20052;-85
2022/01/20 07:35:29;;;;;;;11.73;3.05;;;;;;;5.15;71.36;101168.81;5092770;28;20044;-85
2022/01/20 07:37:57;;;;;;;12.32;2.97;;;;;;;5.19;70.78;101164.44;5086416;28;20052;-84
2022/01/20 07:40:24;;;;;;;13.55;2.72;;;;;;;5.22;70.88;101154.81;5093251;28;20052;-83
2022/01/20 07:42:52;;;;;;;8.30;2.10;;;;;;;5.30;70.02;101165.38;5091767;28;20072;-84
2022/01/20 07:45:21;;;;;;;9.57;2.33;;;;;;;5.34;70.45;101177.56;5091859;28;20048;-84
2022/01/20 07:47:49;;;;;;;8.52;2.33;;;;;;;5.23;69.83;101173.88;5089201;28;20539;-83
2022/01/20 07:50:16;;;;;;;19.75;3.58;;;;;;;5.21;69.75;101184.34;5094187;28;20052;-82
2022/01/20 07:52:44;;;;;;;11.50;2.92;;;;;;;5.13;69.39;101192.28;5087835;28;20051;-82
2022/01/20 07:55:11;;;;;;;11.57;3.20;;;;;;;5.01;69.50;101189.66;5086766;28;20055;-82
2022/01/20 07:57:40;;;;;;;10.88;2.40;;;;;;;5.06;69.59;101206.28;5089695;28;20060;-85
2022/01/20 08:00:09;;;;;;;8.07;2.50;;;;;;;5.12;68.58;101210.75;5093861;28;20518;-86
2022/01/20 08:02:38;;;;;;;11.90;2.72;;;;;;;5.21;67.82;101214.75;5090833;28;20040;-83
2022/01/20 08:05:06;;;;;;;7.65;2.95;;;;;;;5.41;66.30;101227.91;5088200;28;20055;-83
2022/01/20 08:07:33;;;;;;;8.68;2.47;;;;;;;5.43;65.62;101225.72;5094229;28;20432;-83
2022/01/20 08:10:01;;;;;;;8.27;1.98;;;;;;;5.40;64.73;101212.44;5096436;28;20051;-84
2022/01/20 08:12:29;;;;;;;9.80;2.13;;;;;;;5.37;65.19;101220.41;5091096;28;20052;-84
2022/01/20 08:14:58;;;;;;;6.50;2.25;;;;;;;5.32;65.52;101212.09;5090650;28;20051;-82
2022/01/20 08:17:25;;;;;;;10.93;2.28;;;;;;;5.32;65.95;101210.16;5085730;28;20437;-83
2022/01/20 08:19:54;;;;;;;9.18;2.80;;;;;;;5.27;66.04;101213.69;5094982;28;20048;-83
2022/01/20 08:22:22;;;;;;;12.55;2.83;;;;;;;5.15;66.14;101213.00;5088611;28;20048;-85
2022/01/20 08:24:52;;;;;;;10.02;2.53;;;;;;;5.16;65.73;101225.72;5091549;28;20048;-81
2022/01/20 08:27:19;;;;;;;9.45;2.67;;;;;;;5.99;64.20;101228.16;5083612;28;20045;-83
2022/01/20 08:29:47;;;;;;;7.13;2.15;;;;;;;7.30;60.81;101208.84;5087641;28;20072;-84
2022/01/20 08:32:15;;;;;;;7.97;2.20;;;;;;;8.48;56.92;101216.28;5076498;28;20066;-85
2022/01/20 08:34:42;;;;;;;7.70;2.15;;;;;;;9.63;53.19;101214.31;5077813;28;20053;-84
2022/01/20 08:37:11;;;;;;;8.30;2.40;;;;;;;10.74;50.35;101209.91;5074307;28;20044;-83
2022/01/20 08:39:41;;;;;;;5.82;1.90;;;;;;;12.08;47.32;101215.19;5072406;28;20055;-82
2022/01/20 08:42:10;;;;;;;5.70;1.98;;;;;;;13.22;44.91;101197.78;5073544;28;20076;-85
2022/01/20 08:44:38;;;;;;;5.82;1.60;;;;;;;14.02;42.31;101204.53;5076813;28;20051;-86
2022/01/20 08:47:14;;;;;;;6.90;2.00;;;;;;;14.78;39.33;101205.59;5073537;28;20048;-85
2022/01/20 08:49:42;;;;;;;5.65;1.92;;;;;;;13.91;39.96;101213.53;5074733;28;20079;-84
2022/01/20 08:52:10;;;;;;;8.48;2.30;;;;;;;12.99;41.69;101208.91;5077550;28;20063;-85
2022/01/20 08:54:38;;;;;;;6.23;1.87;;;;;;;12.35;43.48;101208.81;5074660;28;20052;-84
2022/01/20 08:57:06;;;;;;;7.28;2.03;;;;;;;11.95;43.71;101210.41;5075256;28;20159;-84
2022/01/20 08:59:33;;;;;;;9.98;2.70;;;;;;;11.30;44.81;101213.91;5077512;28;20067;-84
2022/01/20 09:02:01;;;;;;;9.10;2.55;;;;;;;10.63;45.86;101225.09;5076188;28;20055;-84
2022/01/20 09:04:28;;;;;;;11.32;3.00;;;;;;;10.19;46.56;101234.44;5074430;28;20044;-84
2022/01/20 09:06:55;;;;;;;8.93;2.22;;;;;;;9.94;47.83;101244.66;5073880;28;20689;-85
2022/01/20 09:09:24;;;;;;;12.38;2.92;;;;;;;9.53;48.55;101237.47;5075978;28;20044;-85
2022/01/20 09:12:04;;;;;;;5.75;2.28;;;;;;;9.05;50.17;101247.47;5073016;28;20098;-83
2022/01/20 09:17:16;;;;;;;12.07;2.92;;;;;;;8.28;51.83;101259.63;5078863;28;20063;-84
2022/01/20 09:19:44;;;;;;;14.05;2.95;;;;;;;8.03;52.43;101254.91;5075054;28;20060;-82
2022/01/20 09:22:12;;;;;;;8.88;2.58;;;;;;;7.79;52.94;101259.34;5074397;28;20059;-84
2022/01/20 09:24:45;;;;;;;11.57;3.55;;;;;;;7.61;53.68;101257.97;5073938;28;20067;-83
2022/01/20 09:27:13;;;;;;;10.65;2.30;;;;;;;7.43;54.51;101273.16;5074799;28;20052;-81
2022/01/20 09:29:41;;;;;;;9.00;2.20;;;;;;;7.24;55.03;101270.88;5072671;28;20060;-81
2022/01/20 09:32:12;;;;;;;8.27;2.70;;;;;;;7.06;55.75;101263.09;5081071;28;20449;-81
2022/01/20 09:34:40;;;;;;;12.82;2.53;;;;;;;7.10;56.49;101262.28;5073350;28;20054;-78
2022/01/20 09:37:07;;;;;;;9.75;2.70;;;;;;;7.42;56.07;101255.69;5091352;28;20055;-82
2022/01/20 09:39:37;;;;;;;13.95;3.30;;;;;;;8.27;55.11;101259.88;5096104;28;20052;-82
2022/01/20 09:42:08;;;;;;;7.47;2.50;;;;;;;8.85;51.83;101249.22;5092566;28;20056;-83
2022/01/20 09:44:36;;;;;;;9.02;2.28;;;;;;;9.40;50.37;101254.78;5085327;28;20052;-84
2022/01/20 09:47:04;;;;;;;7.00;2.20;;;;;;;10.10;48.58;101259.25;5094543;28;20044;-83
2022/01/20 09:49:31;;;;;;;5.30;1.80;;;;;;;10.12;48.46;101259.81;5084870;28;20059;-81
2022/01/20 09:51:59;;;;;;;7.07;2.92;;;;;;;11.69;44.27;101263.78;5085190;28;20063;-84
2022/01/20 09:54:26;;;;;;;14.05;5.25;;;;;;;14.58;40.04;101263.09;5085751;28;20055;-84
2022/01/20 09:56:53;;;;;;;8.88;4.05;;;;;;;13.45;40.62;101273.44;5088685;28;20052;-85
2022/01/20 09:59:22;;;;;;;10.70;2.33;;;;;;;12.59;42.07;101272.09;5088991;28;20048;-84
2022/01/20 10:01:56;;;;;;;6.60;1.92;;;;;;;11.52;43.79;101281.06;5087977;28;20052;-83
2022/01/20 10:04:25;;;;;;;8.18;2.08;;;;;;;12.91;41.16;101271.16;5088252;28;20055;-85
2022/01/20 10:06:55;;;;;;;6.53;2.60;;;;;;;14.97;37.82;101281.91;5097749;28;20060;-83
2022/01/20 10:09:28;;;;;;;5.20;1.70;;;;;;;17.83;33.77;101273.22;5092855;28;20055;-85
2022/01/20 10:11:56;;;;;;;8.27;2.45;;;;;;;15.91;35.03;101283.56;5092040;28;20063;-85
2022/01/20 10:14:25;;;;;;;5.57;2.38;;;;;;;14.58;37.17;101280.75;5099744;28;20048;-82
2022/01/20 10:16:53;;;;;;;10.73;2.15;;;;;;;13.56;38.75;101280.44;5093404;28;20059;-85
2022/01/20 10:19:26;;;;;;;8.55;2.00;;;;;;;12.21;40.45;101288.97;5099552;28;20044;-84
2022/01/20 10:21:54;;;;;;;6.78;2.17;;;;;;;12.06;41.58;101286.44;5100563;28;20052;-83
2022/01/20 10:24:22;;;;;;;5.60;2.00;;;;;;;11.58;43.15;101293.00;5089049;28;20059;-83
2022/01/20 10:26:51;;;;;;;9.25;2.55;;;;;;;10.84;43.82;101304.53;5098447;28;20055;-82
2022/01/20 10:29:19;;;;;;;10.35;2.58;;;;;;;10.32;45.72;101300.59;5103329;28;20047;-87
2022/01/20 10:31:51;;;;;;;8.30;2.22;;;;;;;9.69;47.27;101313.28;5094632;28;20067;-86
2022/01/20 10:34:28;;;;;;;10.45;2.67;;;;;;;9.45;47.74;101326.22;5082982;28;20056;-87
2022/01/20 10:36:59;;;;;;;8.38;2.17;;;;;;;9.15;48.01;101316.91;5092416;28;20055;-84
2022/01/20 10:39:31;;;;;;;7.45;2.30;;;;;;;8.87;48.87;101319.22;5091502;28;20059;-86
2022/01/20 10:42:04;;;;;;;10.77;2.65;;;;;;;8.84;50.38;101330.06;5095309;28;20485;-87
2022/01/20 10:44:42;;;;;;;8.00;2.38;;;;;;;8.97;49.47;101323.09;5087262;28;20394;-84
2022/01/20 10:47:14;;;;;;;9.05;2.30;;;;;;;9.06;49.56;101326.94;5090525;28;20056;-84
2022/01/20 10:49:43;;;;;;;7.43;2.38;;;;;;;9.11;49.19;101340.81;5093967;28;20063;-86
2022/01/20 10:52:13;;;;;;;10.30;2.75;;;;;;;9.13;48.97;101328.31;5096858;28;20052;-85
2022/01/20 10:54:42;;;;;;;7.72;2.15;;;;;;;9.83;46.34;101323.78;5083134;28;20059;-84
2022/01/20 10:57:11;;;;;;;5.75;1.95;;;;;;;9.67;47.29;101323.03;5085594;28;20044;-87
2022/01/20 10:59:50;;;;;;;6.10;2.03;;;;;;;9.77;46.38;101327.72;5090427;28;20059;-86
2022/01/20 11:02:21;;;;;;;7.00;2.22;;;;;;;9.48;46.78;101308.97;5096014;28;20047;-84
2022/01/20 11:04:50;;;;;;;7.07;2.22;;;;;;;9.44;46.85;101319.00;5091871;28;20056;-84
2022/01/20 11:07:17;;;;;;;7.25;2.35;;;;;;;10.84;44.27;101315.69;5087842;28;20512;-83
2022/01/20 11:09:47;;;;;;;6.90;2.33;;;;;;;11.28;42.34;101309.03;5092151;28;20071;-83
2022/01/20 11:12:18;;;;;;;7.68;2.10;;;;;;;11.29;42.52;101310.66;5093799;28;20048;-83
2022/01/20 11:14:49;;;;;;;8.20;2.28;;;;;;;13.84;38.77;101294.34;5096854;28;20055;-84
2022/01/20 11:17:23;;;;;;;9.50;2.67;;;;;;;12.54;39.91;101289.78;5093080;28;20060;-84
2022/01/20 11:19:51;;;;;;;6.65;2.35;;;;;;;11.42;41.23;101291.53;5099019;28;20056;-84
2022/01/20 11:22:21;;;;;;;10.07;2.45;;;;;;;11.21;42.38;101291.81;5089551;28;20353;-83
2022/01/20 11:24:59;;;;;;;9.13;2.22;;;;;;;10.79;43.30;101296.22;5084573;28;20449;-85
2022/01/20 11:27:40;;;;;;;8.35;2.10;;;;;;;10.40;44.23;101294.41;5093324;28;20052;-83
2022/01/20 11:30:15;;;;;;;7.50;2.20;;;;;;;9.96;45.15;101292.53;5097415;28;20052;-83
2022/01/20 11:32:57;;;;;;;8.32;2.83;;;;;;;9.53;46.38;101298.66;5096056;28;20040;-84
2022/01/20 11:35:37;;;;;;;12.30;2.75;;;;;;;9.87;46.18;101297.03;5091869;28;20055;-83
2022/01/20 11:38:04;;;;;;;10.70;2.78;;;;;;;11.07;43.74;101294.50;5095856;28;20059;-83
2022/01/20 11:40:32;;;;;;;5.60;2.42;;;;;;;11.11;43.47;101286.38;5099019;28;20051;-83
2022/01/20 11:43:05;;;;;;;4.70;2.10;;;;;;;11.05;43.10;101298.72;5085490;28;20048;-84
2022/01/20 11:45:37;;;;;;;10.18;3.00;;;;;;;10.35;44.48;101291.66;5091585;28;20100;-81
2022/01/20 11:48:17;;;;;;;7.65;2.50;;;;;;;10.08;45.53;101297.69;5096742;28;20048;-81
2022/01/20 11:50:45;;;;;;;9.40;2.15;;;;;;;9.71;45.86;101288.78;5097426;28;20052;-81
2022/01/20 11:53:16;;;;;;;7.93;2.75;;;;;;;9.32;45.92;101295.16;5097600;28;20130;-82
2022/01/20 11:55:50;;;;;;;9.55;2.22;;;;;;;8.96;46.43;101294.47;5092995;28;20059;-82
2022/01/20 11:58:21;;;;;;;9.75;2.63;;;;;;;8.44;47.50;101312.34;5088745;28;20040;-83
2022/01/20 12:00:59;;;;;;;9.02;3.10;;;;;;;8.27;48.24;101312.63;5089129;28;20059;-85
2022/01/20 12:03:29;;;;;;;11.05;2.85;;;;;;;8.22;49.72;101301.53;5089231;28;20049;-82
2022/01/20 12:06:01;;;;;;;8.23;2.58;;;;;;;8.08;48.96;101299.31;5088220;28;20059;-83
2022/01/20 12:08:29;;;;;;;9.40;2.05;;;;;;;7.92;49.75;101295.69;5096706;28;20063;-83
2022/01/20 12:11:01;;;;;;;9.45;2.13;;;;;;;7.43;50.30;101292.56;5085213;28;20059;-83
2022/01/20 12:13:30;;;;;;;10.20;2.58;;;;;;;7.19;51.75;101295.81;5094252;28;20056;-82
2022/01/20 12:16:00;;;;;;;11.23;3.47;;;;;;;7.28;51.69;101280.31;5086988;28;20051;-81
2022/01/20 12:18:29;;;;;;;8.30;2.22;;;;;;;7.59;51.42;101280.41;5085540;28;20048;-82
2022/01/20 12:21:08;;;;;;;9.02;2.50;;;;;;;7.81;49.96;101269.06;5097322;28;20067;-84
2022/01/20 12:23:42;;;;;;;4.13;2.13;;;;;;;7.65;50.97;101275.72;5097653;28;20048;-84